sensor_id;sensor_type;location;lat;lon;timestamp;P1;durP1;ratioP1;P2;durP2;ratioP2
76051;SDS011;64751;48.708;9.710;2023-08-17T14:32:37;0.50;;;0.50;;
76051;SDS011;64751;48.708;9.710;2023-08-17T14:35:05;0.63;;;0.55;;
76051;SDS011;64751;48.708;9.710;2023-08-17T14:37:33;0.40;;;0.38;;
76051;SDS011;64751;48.708;9.710;2023-08-17T14:40:01;0.73;;;0.60;;
76051;SDS011;64751;48.708;9.710;2023-08-17T14:42:29;0.50;;;0.50;;
76051;SDS011;64751;48.708;9.710;2023-08-17T14:44:58;0.55;;;0.55;;
76051;SDS011;64751;48.708;9.710;2023-08-17T14:47:25;0.47;;;0.47;;
76051;SDS011;64751;48.708;9.710;2023-08-17T14:49:55;0.50;;;0.50;;
76051;SDS011;64751;48.708;9.710;2023-08-17T14:52:23;0.50;;;0.50;;
76051;SDS011;64751;48.708;9.710;2023-08-17T14:54:52;0.40;;;0.40;;
76051;SDS011;64751;48.708;9.710;2023-08-17T14:57:20;0.70;;;0.70;;
76051;SDS011;64751;48.708;9.710;2023-08-17T14:59:48;0.50;;;0.50;;
76051;SDS011;64751;48.708;9.710;2023-08-17T15:02:16;0.40;;;0.40;;
76051;SDS011;64751;48.708;9.710;2023-08-17T15:04:44;0.30;;;0.30;;
76051;SDS011;64751;48.708;9.710;2023-08-17T15:07:14;0.32;;;0.32;;
76051;SDS011;64751;48.708;9.710;2023-08-17T15:09:42;0.35;;;0.35;;
76051;SDS011;64751;48.708;9.710;2023-08-17T15:12:11;0.30;;;0.30;;
76051;SDS011;64751;48.708;9.710;2023-08-17T15:14:39;0.40;;;0.40;;
76051;SDS011;64751;48.708;9.710;2023-08-17T15:17:07;0.57;;;0.57;;
76051;SDS011;64751;48.708;9.710;2023-08-17T15:19:35;0.60;;;0.60;;
76051;SDS011;64751;48.708;9.710;2023-08-17T15:22:03;0.60;;;0.60;;
76051;SDS011;64751;48.708;9.710;2023-08-17T15:24:33;0.50;;;0.50;;
76051;SDS011;64751;48.708;9.710;2023-08-17T15:27:01;0.52;;;0.52;;
76051;SDS011;64751;48.708;9.710;2023-08-17T15:29:29;0.70;;;0.70;;
76051;SDS011;64751;48.708;9.710;2023-08-17T15:31:57;0.57;;;0.57;;
76051;SDS011;64751;48.708;9.710;2023-08-17T15:34:28;0.40;;;0.40;;
76051;SDS011;64751;48.708;9.710;2023-08-17T15:37:14;0.73;;;0.60;;
76051;SDS011;64751;48.708;9.710;2023-08-17T15:39:46;0.45;;;0.45;;
76051;SDS011;64751;48.708;9.710;2023-08-17T15:42:14;0.50;;;0.50;;
76051;SDS011;64751;48.708;9.710;2023-08-17T15:44:42;0.55;;;0.52;;
76051;SDS011;64751;48.708;9.710;2023-08-17T15:47:11;0.63;;;0.63;;
76051;SDS011;64751;48.708;9.710;2023-08-17T15:49:39;0.45;;;0.45;;
76051;SDS011;64751;48.708;9.710;2023-08-17T15:52:06;0.35;;;0.35;;
76051;SDS011;64751;48.708;9.710;2023-08-17T15:54:34;0.60;;;0.60;;
76051;SDS011;64751;48.708;9.710;2023-08-17T15:57:04;0.40;;;0.40;;
76051;SDS011;64751;48.708;9.710;2023-08-17T15:59:32;0.30;;;0.30;;
76051;SDS011;64751;48.708;9.710;2023-08-17T16:02:02;0.50;;;0.50;;
76051;SDS011;64751;48.708;9.710;2023-08-17T16:04:29;0.55;;;0.55;;
76051;SDS011;64751;48.708;9.710;2023-08-17T16:06:58;0.50;;;0.50;;
76051;SDS011;64751;48.708;9.710;2023-08-17T16:09:25;0.50;;;0.50;;
76051;SDS011;64751;48.708;9.710;2023-08-17T16:11:53;0.52;;;0.52;;
76051;SDS011;64751;48.708;9.710;2023-08-17T16:14:23;0.50;;;0.50;;
76051;SDS011;64751;48.708;9.710;2023-08-17T16:16:51;0.93;;;0.93;;
76051;SDS011;64751;48.708;9.710;2023-08-17T16:19:20;0.60;;;0.60;;
76051;SDS011;64751;48.708;9.710;2023-08-17T16:21:48;0.57;;;0.57;;
76051;SDS011;64751;48.708;9.710;2023-08-17T16:24:16;0.50;;;0.50;;
76051;SDS011;64751;48.708;9.710;2023-08-17T16:26:44;0.52;;;0.52;;
76051;SDS011;64751;48.708;9.710;2023-08-17T16:29:12;0.55;;;0.55;;
76051;SDS011;64751;48.708;9.710;2023-08-17T16:31:41;0.47;;;0.47;;
76051;SDS011;64751;48.708;9.710;2023-08-17T16:34:09;0.40;;;0.40;;
76051;SDS011;64751;48.708;9.710;2023-08-17T16:36:37;0.30;;;0.30;;
76051;SDS011;64751;48.708;9.710;2023-08-17T16:39:04;0.40;;;0.40;;
76051;SDS011;64751;48.708;9.710;2023-08-17T16:41:33;0.38;;;0.38;;
76051;SDS011;64751;48.708;9.710;2023-08-17T16:44:01;0.45;;;0.45;;
76051;SDS011;64751;48.708;9.710;2023-08-17T16:46:29;0.30;;;0.30;;
76051;SDS011;64751;48.708;9.710;2023-08-17T16:48:58;0.60;;;0.60;;
76051;SDS011;64751;48.708;9.710;2023-08-17T16:51:26;0.43;;;0.43;;
76051;SDS011;64751;48.708;9.710;2023-08-17T16:53:54;0.60;;;0.60;;
76051;SDS011;64751;48.708;9.710;2023-08-17T16:56:22;0.50;;;0.50;;
76051;SDS011;64751;48.708;9.710;2023-08-17T16:58:50;0.77;;;0.70;;
76051;SDS011;64751;48.708;9.710;2023-08-17T17:01:18;0.50;;;0.50;;
76051;SDS011;64751;48.708;9.710;2023-08-17T17:03:46;0.60;;;0.60;;
76051;SDS011;64751;48.708;9.710;2023-08-17T17:06:15;0.60;;;0.60;;
76051;SDS011;64751;48.708;9.710;2023-08-17T17:08:43;0.40;;;0.40;;
76051;SDS011;64751;48.708;9.710;2023-08-17T17:11:12;0.50;;;0.50;;
76051;SDS011;64751;48.708;9.710;2023-08-17T17:13:39;0.50;;;0.50;;
76051;SDS011;64751;48.708;9.710;2023-08-17T17:16:07;0.45;;;0.45;;
76051;SDS011;64751;48.708;9.710;2023-08-17T17:18:35;0.50;;;0.50;;
76051;SDS011;64751;48.708;9.710;2023-08-17T17:21:03;0.30;;;0.30;;
76051;SDS011;64751;48.708;9.710;2023-08-17T17:23:35;0.60;;;0.60;;
76051;SDS011;64751;48.708;9.710;2023-08-17T17:26:03;0.60;;;0.60;;
76051;SDS011;64751;48.708;9.710;2023-08-17T17:28:34;0.50;;;0.50;;
76051;SDS011;64751;48.708;9.710;2023-08-17T17:31:02;0.50;;;0.50;;
76051;SDS011;64751;48.708;9.710;2023-08-17T17:33:31;0.50;;;0.50;;
76051;SDS011;64751;48.708;9.710;2023-08-17T17:35:59;0.70;;;0.70;;
76051;SDS011;64751;48.708;9.710;2023-08-17T17:38:27;0.50;;;0.50;;
76051;SDS011;64751;48.708;9.710;2023-08-17T17:40:57;0.60;;;0.60;;
76051;SDS011;64751;48.708;9.710;2023-08-17T17:43:24;0.50;;;0.50;;
76051;SDS011;64751;48.708;9.710;2023-08-17T17:45:52;0.40;;;0.40;;
76051;SDS011;64751;48.708;9.710;2023-08-17T17:48:20;0.40;;;0.40;;
76051;SDS011;64751;48.708;9.710;2023-08-17T17:50:48;0.40;;;0.40;;
76051;SDS011;64751;48.708;9.710;2023-08-17T17:53:16;0.32;;;0.32;;
76051;SDS011;64751;48.708;9.710;2023-08-17T17:55:44;0.57;;;0.57;;
76051;SDS011;64751;48.708;9.710;2023-08-17T17:58:13;0.40;;;0.40;;
76051;SDS011;64751;48.708;9.710;2023-08-17T18:00:41;0.20;;;0.20;;
76051;SDS011;64751;48.708;9.710;2023-08-17T18:03:10;0.40;;;0.40;;
76051;SDS011;64751;48.708;9.710;2023-08-17T18:05:39;0.43;;;0.43;;
76051;SDS011;64751;48.708;9.710;2023-08-17T18:08:09;0.52;;;0.50;;
76051;SDS011;64751;48.708;9.710;2023-08-17T18:10:37;0.50;;;0.50;;
76051;SDS011;64751;48.708;9.710;2023-08-17T18:13:06;0.60;;;0.60;;
76051;SDS011;64751;48.708;9.710;2023-08-17T18:15:35;0.40;;;0.40;;
76051;SDS011;64751;48.708;9.710;2023-08-17T18:18:04;0.40;;;0.40;;
76051;SDS011;64751;48.708;9.710;2023-08-17T18:20:33;0.52;;;0.52;;
76051;SDS011;64751;48.708;9.710;2023-08-17T18:23:01;0.35;;;0.35;;
76051;SDS011;64751;48.708;9.710;2023-08-17T18:25:29;0.50;;;0.50;;
76051;SDS011;64751;48.708;9.710;2023-08-17T18:27:58;0.50;;;0.50;;
76051;SDS011;64751;48.708;9.710;2023-08-17T18:30:25;0.40;;;0.40;;
76051;SDS011;64751;48.708;9.710;2023-08-17T18:32:55;0.50;;;0.50;;
76051;SDS011;64751;48.708;9.710;2023-08-17T18:35:23;0.60;;;0.60;;
76051;SDS011;64751;48.708;9.710;2023-08-17T18:37:51;0.40;;;0.40;;
76051;SDS011;64751;48.708;9.710;2023-08-17T18:40:18;0.40;;;0.40;;
76051;SDS011;64751;48.708;9.710;2023-08-17T18:42:47;0.60;;;0.60;;
76051;SDS011;64751;48.708;9.710;2023-08-17T18:45:16;0.50;;;0.50;;
76051;SDS011;64751;48.708;9.710;2023-08-17T18:47:45;0.30;;;0.30;;
76051;SDS011;64751;48.708;9.710;2023-08-17T18:50:15;0.40;;;0.40;;
76051;SDS011;64751;48.708;9.710;2023-08-17T18:52:43;0.40;;;0.40;;
76051;SDS011;64751;48.708;9.710;2023-08-17T18:55:11;0.40;;;0.40;;
76051;SDS011;64751;48.708;9.710;2023-08-17T18:57:39;0.32;;;0.32;;
76051;SDS011;64751;48.708;9.710;2023-08-17T19:00:08;0.20;;;0.20;;
76051;SDS011;64751;48.708;9.710;2023-08-17T19:02:37;0.30;;;0.30;;
76051;SDS011;64751;48.708;9.710;2023-08-17T19:05:06;0.40;;;0.40;;
76051;SDS011;64751;48.708;9.710;2023-08-17T19:07:35;0.20;;;0.20;;
76051;SDS011;64751;48.708;9.710;2023-08-17T19:10:04;0.38;;;0.38;;
76051;SDS011;64751;48.708;9.710;2023-08-17T19:12:32;0.43;;;0.43;;
76051;SDS011;64751;48.708;9.710;2023-08-17T19:15:01;0.15;;;0.15;;
76051;SDS011;64751;48.708;9.710;2023-08-17T19:17:29;0.20;;;0.20;;
76051;SDS011;64751;48.708;9.710;2023-08-17T19:19:57;0.20;;;0.20;;
76051;SDS011;64751;48.708;9.710;2023-08-17T19:22:25;0.35;;;0.35;;
76051;SDS011;64751;48.708;9.710;2023-08-17T19:24:54;0.38;;;0.38;;
76051;SDS011;64751;48.708;9.710;2023-08-17T19:27:22;0.40;;;0.30;;
76051;SDS011;64751;48.708;9.710;2023-08-17T19:29:49;0.22;;;0.22;;
76051;SDS011;64751;48.708;9.710;2023-08-17T19:32:17;0.20;;;0.20;;
76051;SDS011;64751;48.708;9.710;2023-08-17T19:34:45;0.40;;;0.32;;
76051;SDS011;64751;48.708;9.710;2023-08-17T19:37:13;0.30;;;0.30;;
76051;SDS011;64751;48.708;9.710;2023-08-17T19:39:41;0.28;;;0.28;;
76051;SDS011;64751;48.708;9.710;2023-08-17T19:42:10;0.10;;;0.10;;
76051;SDS011;64751;48.708;9.710;2023-08-17T19:44:38;0.10;;;0.10;;
76051;SDS011;64751;48.708;9.710;2023-08-17T19:47:05;0.20;;;0.20;;
76051;SDS011;64751;48.708;9.710;2023-08-17T19:49:34;0.30;;;0.30;;
76051;SDS011;64751;48.708;9.710;2023-08-17T19:52:02;0.25;;;0.25;;
76051;SDS011;64751;48.708;9.710;2023-08-17T19:54:30;0.30;;;0.30;;
76051;SDS011;64751;48.708;9.710;2023-08-17T19:56:58;0.28;;;0.10;;
76051;SDS011;64751;48.708;9.710;2023-08-17T19:59:27;0.20;;;0.20;;
76051;SDS011;64751;48.708;9.710;2023-08-17T20:01:55;0.15;;;0.15;;
76051;SDS011;64751;48.708;9.710;2023-08-17T20:04:22;0.10;;;0.10;;
76051;SDS011;64751;48.708;9.710;2023-08-17T20:06:50;0.30;;;0.30;;
76051;SDS011;64751;48.708;9.710;2023-08-17T20:09:18;0.22;;;0.22;;
76051;SDS011;64751;48.708;9.710;2023-08-17T20:11:46;0.40;;;0.10;;
76051;SDS011;64751;48.708;9.710;2023-08-17T20:14:14;0.45;;;0.32;;
76051;SDS011;64751;48.708;9.710;2023-08-17T20:16:43;0.30;;;0.30;;
76051;SDS011;64751;48.708;9.710;2023-08-17T20:19:11;0.35;;;0.20;;
76051;SDS011;64751;48.708;9.710;2023-08-17T20:21:39;0.22;;;0.22;;
76051;SDS011;64751;48.708;9.710;2023-08-17T20:24:07;0.30;;;0.30;;
76051;SDS011;64751;48.708;9.710;2023-08-17T20:26:35;0.38;;;0.30;;
76051;SDS011;64751;48.708;9.710;2023-08-17T20:29:04;0.10;;;0.10;;
76051;SDS011;64751;48.708;9.710;2023-08-17T20:31:32;0.20;;;0.20;;
76051;SDS011;64751;48.708;9.710;2023-08-17T20:34:01;0.20;;;0.20;;
76051;SDS011;64751;48.708;9.710;2023-08-17T20:36:29;0.35;;;0.20;;
76051;SDS011;64751;48.708;9.710;2023-08-17T20:38:56;0.30;;;0.30;;
76051;SDS011;64751;48.708;9.710;2023-08-17T20:41:31;0.10;;;0.10;;
76051;SDS011;64751;48.708;9.710;2023-08-17T20:43:59;0.10;;;0.10;;
76051;SDS011;64751;48.708;9.710;2023-08-17T20:46:27;0.40;;;0.30;;
76051;SDS011;64751;48.708;9.710;2023-08-17T20:48:55;0.20;;;0.20;;
76051;SDS011;64751;48.708;9.710;2023-08-17T20:51:26;0.20;;;0.20;;
76051;SDS011;64751;48.708;9.710;2023-08-17T20:53:54;0.40;;;0.30;;
76051;SDS011;64751;48.708;9.710;2023-08-17T20:56:23;0.10;;;0.10;;
76051;SDS011;64751;48.708;9.710;2023-08-17T20:58:51;0.20;;;0.20;;
76051;SDS011;64751;48.708;9.710;2023-08-17T21:01:19;0.20;;;0.20;;
76051;SDS011;64751;48.708;9.710;2023-08-17T21:03:47;0.40;;;0.30;;
76051;SDS011;64751;48.708;9.710;2023-08-17T21:06:14;0.43;;;0.30;;
76051;SDS011;64751;48.708;9.710;2023-08-17T21:08:44;0.20;;;0.13;;
76051;SDS011;64751;48.708;9.710;2023-08-17T21:11:12;0.20;;;0.20;;
76051;SDS011;64751;48.708;9.710;2023-08-17T21:13:39;0.22;;;0.22;;
76051;SDS011;64751;48.708;9.710;2023-08-17T21:16:08;0.55;;;0.35;;
76051;SDS011;64751;48.708;9.710;2023-08-17T21:18:36;0.10;;;0.10;;
76051;SDS011;64751;48.708;9.710;2023-08-17T21:21:04;0.20;;;0.20;;
76051;SDS011;64751;48.708;9.710;2023-08-17T21:23:32;0.10;;;0.10;;
76051;SDS011;64751;48.708;9.710;2023-08-17T21:26:01;0.32;;;0.28;;
76051;SDS011;64751;48.708;9.710;2023-08-17T21:28:29;0.25;;;0.20;;
76051;SDS011;64751;48.708;9.710;2023-08-17T21:31:00;0.15;;;0.15;;
76051;SDS011;64751;48.708;9.710;2023-08-17T21:33:28;0.30;;;0.28;;
76051;SDS011;64751;48.708;9.710;2023-08-17T21:35:56;0.47;;;0.20;;
76051;SDS011;64751;48.708;9.710;2023-08-17T21:38:25;0.22;;;0.22;;
76051;SDS011;64751;48.708;9.710;2023-08-17T21:40:54;0.30;;;0.30;;
76051;SDS011;64751;48.708;9.710;2023-08-17T21:43:25;0.30;;;0.30;;
76051;SDS011;64751;48.708;9.710;2023-08-17T21:45:53;0.47;;;0.30;;
76051;SDS011;64751;48.708;9.710;2023-08-17T21:48:22;0.32;;;0.32;;
76051;SDS011;64751;48.708;9.710;2023-08-17T21:50:50;0.13;;;0.13;;
76051;SDS011;64751;48.708;9.710;2023-08-17T21:53:18;0.50;;;0.30;;
76051;SDS011;64751;48.708;9.710;2023-08-17T21:55:47;0.30;;;0.30;;
76051;SDS011;64751;48.708;9.710;2023-08-17T21:58:16;0.25;;;0.20;;
